Time;durP1;ratioP1;P1;durP2;ratioP2;P2;SDS_P1;SDS_P2;PMS_P1;PMS_P2;Temp;Humidity;BMP_temperature;BMP_pressure;BME280_temperature;BME280_humidity;BME280_pressure;Samples;Min_cycle;Max_cycle;Signal;HPM_P1;HPM_P2
2022/07/19 00:01:46;;;;;;;3.92;2.15;;;19.20;99.90;;;;;;4997846;28;20179;-76
2022/07/19 00:04:12;;;;;;;2.80;2.13;;;19.20;99.90;;;;;;4979032;28;20172;-76
2022/07/19 00:06:38;;;;;;;3.47;2.22;;;19.10;99.90;;;;;;4998094;28;20577;-76
2022/07/19 00:09:04;;;;;;;4.50;2.22;;;19.00;99.90;;;;;;4978397;28;20646;-76
2022/07/19 00:11:30;;;;;;;3.03;2.00;;;18.90;99.90;;;;;;4995707;28;20242;-76
2022/07/19 00:13:55;;;;;;;3.70;1.90;;;18.80;99.90;;;;;;4993494;28;20179;-76
2022/07/19 00:16:21;;;;;;;2.35;2.15;;;18.70;99.90;;;;;;5002681;28;20666;-76
2022/07/19 00:18:47;;;;;;;2.57;2.03;;;18.70;99.90;;;;;;4997605;28;20195;-76
2022/07/19 00:21:12;;;;;;;2.20;1.90;;;18.60;99.90;;;;;;4994757;28;20180;-76
2022/07/19 00:23:38;;;;;;;3.03;2.10;;;18.60;99.90;;;;;;4998014;28;20243;-76
2022/07/19 00:26:05;;;;;;;2.80;2.23;;;18.80;99.90;;;;;;4996943;28;20788;-76
2022/07/19 00:28:30;;;;;;;2.42;2.10;;;18.60;99.90;;;;;;4999144;28;20248;-76
2022/07/19 00:30:56;;;;;;;2.73;2.20;;;18.70;99.90;;;;;;4994815;28;20266;-76
2022/07/19 00:33:21;;;;;;;3.07;1.90;;;18.50;99.90;;;;;;4997646;28;20642;-76
2022/07/19 00:35:47;;;;;;;2.57;2.00;;;18.40;99.90;;;;;;4997039;28;20250;-76
2022/07/19 00:38:14;;;;;;;2.40;2.17;;;18.40;99.90;;;;;;5015473;28;20565;-76
2022/07/19 00:40:41;;;;;;;2.60;2.13;;;18.40;99.90;;;;;;5014185;28;20175;-76
2022/07/19 00:43:09;;;;;;;3.80;2.10;;;18.50;99.90;;;;;;5013859;28;20197;-76
2022/07/19 00:45:34;;;;;;;4.37;2.13;;;18.50;99.90;;;;;;5013771;28;20186;-76
2022/07/19 00:48:00;;;;;;;3.63;2.00;;;18.40;99.90;;;;;;4997922;28;20199;-76
2022/07/19 00:50:26;;;;;;;2.97;2.00;;;18.30;99.90;;;;;;5013876;28;20626;-76
2022/07/19 00:52:56;;;;;;;3.10;2.00;;;18.20;99.90;;;;;;4988206;28;20192;-76
2022/07/19 00:55:22;;;;;;;1.77;1.67;;;18.30;99.90;;;;;;5012158;28;20183;-76
2022/07/19 00:57:48;;;;;;;2.27;1.97;;;18.10;99.90;;;;;;4994004;28;20199;-76
2022/07/19 01:00:16;;;;;;;2.87;2.20;;;18.10;99.90;;;;;;4973340;28;20184;-76
2022/07/19 01:02:42;;;;;;;2.30;1.93;;;18.20;99.90;;;;;;4994286;28;20234;-76
2022/07/19 01:05:09;;;;;;;2.20;1.93;;;18.10;99.90;;;;;;5009476;28;20183;-76
2022/07/19 01:07:37;;;;;;;3.47;1.97;;;18.10;99.90;;;;;;5013444;28;20611;-76
2022/07/19 01:10:04;;;;;;;2.47;1.80;;;18.00;99.90;;;;;;5013219;28;20202;-76
2022/07/19 01:12:31;;;;;;;2.57;2.13;;;18.00;99.90;;;;;;4996861;28;20190;-76
2022/07/19 01:14:57;;;;;;;2.53;2.00;;;18.20;99.90;;;;;;4994100;28;20187;-76
2022/07/19 01:17:23;;;;;;;2.67;1.90;;;18.00;99.90;;;;;;4978024;28;20242;-76
2022/07/19 01:19:49;;;;;;;2.37;2.17;;;17.80;99.90;;;;;;4982691;28;20549;-76
2022/07/19 01:22:14;;;;;;;3.07;2.30;;;17.70;99.90;;;;;;4993846;28;20761;-76
2022/07/19 01:24:40;;;;;;;2.90;2.03;;;17.80;99.90;;;;;;4977687;28;20188;-76
2022/07/19 01:27:07;;;;;;;2.77;2.20;;;17.90;99.90;;;;;;5008094;28;20213;-76
2022/07/19 01:29:36;;;;;;;2.70;1.90;;;17.90;99.90;;;;;;5012790;28;20260;-76
2022/07/19 01:32:02;;;;;;;3.30;2.10;;;17.80;99.90;;;;;;4976535;28;20183;-76
2022/07/19 01:34:28;;;;;;;2.73;2.20;;;17.70;99.90;;;;;;5003095;28;20195;-76
2022/07/19 01:36:54;;;;;;;2.53;2.00;;;17.60;99.90;;;;;;4996779;28;20217;-76
2022/07/19 01:39:19;;;;;;;2.07;1.77;;;17.70;99.90;;;;;;4995679;28;20229;-76
2022/07/19 01:41:45;;;;;;;7.73;2.27;;;17.50;99.90;;;;;;4980111;28;20603;-76
2022/07/19 01:44:10;;;;;;;2.30;2.10;;;17.40;99.90;;;;;;4980280;28;20185;-76
2022/07/19 01:46:36;;;;;;;2.10;1.83;;;17.10;99.90;;;;;;4996675;28;20179;-76
2022/07/19 01:49:01;;;;;;;3.73;2.00;;;17.10;99.90;;;;;;4976487;28;20195;-76
2022/07/19 01:51:27;;;;;;;2.40;1.80;;;17.00;99.90;;;;;;5003037;28;20294;-76
2022/07/19 01:53:53;;;;;;;3.47;2.20;;;17.00;99.90;;;;;;4977064;28;20184;-76
2022/07/19 01:56:18;;;;;;;2.33;2.13;;;16.90;99.90;;;;;;4995931;28;20191;-76
2022/07/19 01:58:44;;;;;;;3.63;1.90;;;17.00;99.90;;;;;;5012672;28;20218;-76
2022/07/19 02:01:09;;;;;;;2.23;1.90;;;17.00;99.90;;;;;;5009119;28;20183;-76
2022/07/19 02:03:35;;;;;;;2.33;1.87;;;17.10;99.90;;;;;;4995950;28;20178;-76
2022/07/19 02:06:01;;;;;;;3.13;2.30;;;17.10;99.90;;;;;;5012227;28;20190;-76
2022/07/19 02:08:27;;;;;;;2.10;1.90;;;17.30;99.90;;;;;;5012522;28;20205;-76
2022/07/19 02:10:53;;;;;;;2.10;1.90;;;17.30;99.90;;;;;;4980193;28;20681;-76
2022/07/19 02:13:18;;;;;;;2.17;1.77;;;17.00;99.90;;;;;;4978138;28;20190;-76
2022/07/19 02:15:44;;;;;;;2.67;1.80;;;16.90;99.90;;;;;;4996134;28;20242;-76
2022/07/19 02:18:10;;;;;;;2.40;1.90;;;16.70;99.90;;;;;;5011449;28;20213;-76
2022/07/19 02:20:35;;;;;;;2.67;1.80;;;16.40;99.90;;;;;;4996002;28;20179;-76
2022/07/19 02:23:01;;;;;;;5.57;2.13;;;16.30;99.90;;;;;;4995740;28;20229;-76
2022/07/19 02:25:26;;;;;;;2.63;1.87;;;16.20;99.90;;;;;;4979592;28;20206;-76
2022/07/19 02:27:53;;;;;;;2.10;1.90;;;16.30;99.90;;;;;;4979727;28;20265;-76
2022/07/19 02:30:20;;;;;;;2.13;1.80;;;16.50;99.90;;;;;;5011652;28;20229;-76
2022/07/19 02:32:46;;;;;;;3.80;2.00;;;16.60;99.90;;;;;;4995518;28;20214;-76
2022/07/19 02:35:12;;;;;;;2.43;2.00;;;16.60;99.90;;;;;;4992246;28;20180;-76
2022/07/19 02:37:41;;;;;;;2.73;1.90;;;16.80;99.90;;;;;;4976179;28;20690;-76
2022/07/19 02:40:08;;;;;;;2.33;1.93;;;16.60;99.90;;;;;;4999848;28;20179;-76
2022/07/19 02:42:33;;;;;;;1.80;1.70;;;16.70;99.90;;;;;;4995210;28;20211;-76
2022/07/19 02:44:59;;;;;;;2.13;1.60;;;16.80;99.90;;;;;;5011387;28;20215;-76
2022/07/19 02:47:24;;;;;;;2.43;1.97;;;16.80;99.90;;;;;;5012000;28;20226;-76
2022/07/19 02:49:50;;;;;;;2.83;1.90;;;16.60;99.90;;;;;;5011850;28;20595;-76
2022/07/19 02:52:16;;;;;;;3.03;1.87;;;16.40;99.90;;;;;;4979210;28;20605;-76
2022/07/19 02:54:42;;;;;;;1.97;1.77;;;16.50;99.90;;;;;;4983473;28;20187;-76
2022/07/19 02:57:07;;;;;;;3.50;2.07;;;16.60;99.90;;;;;;4996551;28;20736;-76
2022/07/19 02:59:33;;;;;;;3.43;1.90;;;16.50;99.90;;;;;;5010585;28;20258;-76
2022/07/19 03:01:59;;;;;;;2.57;2.20;;;16.60;99.90;;;;;;4994676;28;20195;-76
2022/07/19 03:04:24;;;;;;;4.80;2.27;;;16.50;99.90;;;;;;5011822;28;20183;-76
2022/07/19 03:06:50;;;;;;;3.37;2.13;;;16.40;99.90;;;;;;4991706;28;20222;-76
2022/07/19 03:09:15;;;;;;;2.80;2.30;;;16.30;99.90;;;;;;4979231;28;20195;-76
2022/07/19 03:11:41;;;;;;;2.33;2.10;;;16.20;99.90;;;;;;4979111;28;20233;-76
2022/07/19 03:14:06;;;;;;;2.63;2.30;;;16.20;99.90;;;;;;4995114;28;20183;-76
2022/07/19 03:16:33;;;;;;;3.57;2.10;;;16.00;99.90;;;;;;4995269;28;20333;-76
2022/07/19 03:18:58;;;;;;;3.07;2.13;;;15.90;99.90;;;;;;4995301;28;20649;-76
2022/07/19 03:21:24;;;;;;;2.93;1.90;;;15.90;99.90;;;;;;4990419;28;20178;-76
2022/07/19 03:23:50;;;;;;;3.13;2.03;;;15.70;99.90;;;;;;4994564;28;20193;-76
2022/07/19 03:26:15;;;;;;;2.73;2.30;;;15.70;99.90;;;;;;4994719;28;20260;-76
2022/07/19 03:28:41;;;;;;;2.40;2.07;;;15.60;99.90;;;;;;4994038;28;20317;-76
2022/07/19 03:31:07;;;;;;;3.27;2.23;;;15.80;99.90;;;;;;4985198;28;20562;-76
2022/07/19 03:33:33;;;;;;;2.40;2.20;;;16.00;99.90;;;;;;4991605;28;20206;-76
2022/07/19 03:35:59;;;;;;;2.77;2.20;;;16.10;99.90;;;;;;4975502;28;20207;-75
2022/07/19 03:38:24;;;;;;;2.40;2.20;;;16.30;99.90;;;;;;5009099;28;20202;-76
2022/07/19 03:40:50;;;;;;;2.20;2.00;;;16.20;99.90;;;;;;4975395;28;20183;-75
2022/07/19 03:43:17;;;;;;;2.07;1.70;;;16.00;99.90;;;;;;5009112;28;20178;-75
2022/07/19 03:45:44;;;;;;;3.00;2.20;;;15.90;99.90;;;;;;5010868;28;20187;-75
2022/07/19 03:48:10;;;;;;;2.17;1.83;;;15.80;99.90;;;;;;4994988;28;20199;-75
2022/07/19 03:50:36;;;;;;;3.17;2.10;;;15.80;99.90;;;;;;4976428;28;20183;-75
2022/07/19 03:53:01;;;;;;;2.57;1.97;;;15.70;99.90;;;;;;4992181;28;20183;-76
2022/07/19 03:55:27;;;;;;;3.63;2.30;;;15.70;99.90;;;;;;4994806;28;20190;-76
2022/07/19 03:57:53;;;;;;;2.67;2.17;;;15.70;99.90;;;;;;4979053;28;20199;-76
2022/07/19 04:00:18;;;;;;;2.90;2.40;;;15.70;99.90;;;;;;4995035;28;20222;-75
2022/07/19 04:02:44;;;;;;;3.27;2.20;;;15.70;99.90;;;;;;5011276;28;20237;-76
2022/07/19 04:05:10;;;;;;;2.57;2.30;;;15.60;99.90;;;;;;4998748;28;20183;-76
2022/07/19 04:07:35;;;;;;;2.20;2.00;;;15.70;99.90;;;;;;4982693;28;20253;-75
2022/07/19 04:10:01;;;;;;;3.13;2.00;;;15.60;99.90;;;;;;4997996;28;20190;-76
2022/07/19 04:12:27;;;;;;;2.53;2.20;;;15.60;99.90;;;;;;4998700;28;20242;-74
2022/07/19 04:14:52;;;;;;;2.20;2.00;;;15.50;99.90;;;;;;4998176;28;20206;-76
2022/07/19 04:17:18;;;;;;;2.37;1.97;;;15.50;99.90;;;;;;4998540;28;20218;-76
2022/07/19 04:19:44;;;;;;;2.47;2.00;;;15.50;99.90;;;;;;5014730;28;20213;-82
2022/07/19 04:22:09;;;;;;;2.20;2.00;;;15.60;99.90;;;;;;4998208;28;20194;-76
2022/07/19 04:24:35;;;;;;;2.70;1.80;;;15.60;99.90;;;;;;5012209;28;20557;-76
2022/07/19 04:27:01;;;;;;;3.90;3.50;;;15.70;99.90;;;;;;4987274;28;20223;-76
2022/07/19 04:29:26;;;;;;;2.30;2.10;;;17.90;99.90;;;;;;4981896;28;20553;-76
2022/07/19 04:31:52;;;;;;;3.70;2.00;;;19.50;99.90;;;;;;4994599;28;20191;-75
2022/07/19 04:34:17;;;;;;;3.40;1.90;;;20.60;99.90;;;;;;4988609;28;20194;-75
2022/07/19 04:36:43;;;;;;;2.73;1.83;;;21.20;99.90;;;;;;4997896;28;20203;-75
2022/07/19 04:39:09;;;;;;;5.97;1.80;;;21.50;99.90;;;;;;5014179;28;20191;-75
2022/07/19 04:41:34;;;;;;;2.33;1.88;;;22.70;99.90;;;;;;5013734;28;20232;-75
2022/07/19 04:44:00;;;;;;;2.40;1.90;;;23.40;99.90;;;;;;5013908;28;20244;-75
2022/07/19 04:46:25;;;;;;;2.42;1.60;;;23.40;99.90;;;;;;5015201;28;20550;-76
2022/07/19 04:48:51;;;;;;;2.88;1.70;;;23.50;99.90;;;;;;4998091;28;20275;-75
2022/07/19 04:51:17;;;;;;;2.20;1.67;;;23.40;99.90;;;;;;4997473;28;20183;-75
2022/07/19 04:53:42;;;;;;;5.05;2.00;;;23.10;99.90;;;;;;4981685;28;20199;-75
2022/07/19 04:56:08;;;;;;;5.38;1.80;;;22.50;99.90;;;;;;4997294;28;20203;-75
2022/07/19 04:58:34;;;;;;;4.18;1.77;;;22.40;99.90;;;;;;4988634;28;20240;-76
2022/07/19 05:00:59;;;;;;;4.25;1.92;;;22.40;99.90;;;;;;4981513;28;20202;-74
2022/07/19 05:03:25;;;;;;;2.50;1.60;;;22.30;99.90;;;;;;4997361;28;20182;-74
2022/07/19 05:05:50;;;;;;;4.53;1.83;;;22.30;99.90;;;;;;4997075;28;20266;-73
2022/07/19 05:08:23;;;;;;;3.33;1.70;;;22.20;99.90;;;;;;4997153;28;20205;-74
2022/07/19 05:10:49;;;;;;;4.05;2.00;;;22.10;99.90;;;;;;4994026;28;20307;-74
2022/07/19 05:13:14;;;;;;;6.32;1.90;;;22.00;99.90;;;;;;5008465;28;20183;-75
2022/07/19 05:15:40;;;;;;;5.03;1.95;;;22.00;99.90;;;;;;5005062;28;20213;-74
2022/07/19 05:18:06;;;;;;;2.60;1.95;;;21.90;99.90;;;;;;5013746;28;20689;-75
2022/07/19 05:20:31;;;;;;;6.45;2.17;;;21.90;99.90;;;;;;4991448;28;20187;-77
2022/07/19 05:22:57;;;;;;;2.83;1.98;;;21.90;99.90;;;;;;4996911;28;20182;-77
2022/07/19 05:25:22;;;;;;;4.72;2.00;;;21.60;99.90;;;;;;4996994;28;20185;-77
2022/07/19 05:27:48;;;;;;;3.80;2.08;;;21.20;99.90;;;;;;4977443;28;20244;-77
2022/07/19 05:30:14;;;;;;;4.22;2.00;;;20.80;99.90;;;;;;4996904;28;20199;-77
2022/07/19 05:32:40;;;;;;;4.22;1.88;;;21.00;99.90;;;;;;4996518;28;20254;-76
2022/07/19 05:35:05;;;;;;;2.10;1.90;;;21.00;99.90;;;;;;4980631;28;20186;-77
2022/07/19 05:37:31;;;;;;;4.07;2.42;;;21.00;99.90;;;;;;4994185;28;20219;-76
2022/07/19 05:39:57;;;;;;;2.90;2.10;;;20.90;99.90;;;;;;4977344;28;20545;-77
2022/07/19 05:42:22;;;;;;;3.15;2.20;;;20.80;99.90;;;;;;4996369;28;20175;-77
2022/07/19 05:44:48;;;;;;;2.45;2.10;;;20.90;99.90;;;;;;4993193;28;20191;-77
2022/07/19 05:47:15;;;;;;;3.50;2.20;;;20.80;99.90;;;;;;5004257;28;20239;-77
2022/07/19 05:49:41;;;;;;;2.85;2.20;;;20.60;99.90;;;;;;5020759;28;20655;-76
2022/07/19 05:52:06;;;;;;;4.47;2.70;;;20.70;99.90;;;;;;4989392;28;20275;-76
2022/07/19 05:54:32;;;;;;;3.72;2.47;;;20.70;99.90;;;;;;4977318;28;20187;-75
2022/07/19 05:56:57;;;;;;;5.10;2.70;;;20.70;99.90;;;;;;4987323;28;20600;-75
2022/07/19 05:59:23;;;;;;;3.17;2.20;;;20.70;99.90;;;;;;4993370;28;20194;-76
2022/07/19 06:01:49;;;;;;;2.77;2.30;;;20.80;99.90;;;;;;4980138;28;20191;-75
2022/07/19 06:04:15;;;;;;;3.00;2.10;;;20.90;99.90;;;;;;4986509;28;20180;-76
2022/07/19 06:06:41;;;;;;;2.95;2.25;;;21.00;99.90;;;;;;5013088;28;20185;-78
2022/07/19 06:09:11;;;;;;;3.10;2.28;;;21.00;99.90;;;;;;4997571;28;20646;-78
2022/07/19 06:11:39;;;;;;;5.28;2.22;;;21.00;99.90;;;;;;5009212;28;20179;-78
2022/07/19 06:14:06;;;;;;;2.97;2.25;;;21.20;99.90;;;;;;4972696;28;20183;-78
2022/07/19 06:16:32;;;;;;;4.22;2.35;;;21.40;99.90;;;;;;4979723;28;20210;-78
2022/07/19 06:18:57;;;;;;;3.08;2.40;;;21.50;99.90;;;;;;5008546;28;20179;-78
2022/07/19 06:21:23;;;;;;;3.28;2.00;;;21.40;99.90;;;;;;4976537;28;20180;-78
2022/07/19 06:23:49;;;;;;;3.28;2.50;;;21.20;99.90;;;;;;5010028;28;20187;-78
2022/07/19 06:26:15;;;;;;;2.53;2.20;;;21.20;99.90;;;;;;5013122;28;20178;-78
2022/07/19 06:28:41;;;;;;;2.53;2.20;;;21.10;99.90;;;;;;5004198;28;20264;-78
2022/07/19 06:31:07;;;;;;;2.97;2.10;;;21.10;99.90;;;;;;4996402;28;20175;-78
2022/07/19 06:33:33;;;;;;;3.55;2.55;;;21.20;99.90;;;;;;4996703;28;20175;-78
2022/07/19 06:35:58;;;;;;;2.90;2.20;;;21.10;99.90;;;;;;5007938;28;20237;-78
2022/07/19 06:38:24;;;;;;;4.00;2.33;;;21.00;99.90;;;;;;5013520;28;20206;-78
2022/07/19 06:40:50;;;;;;;2.88;2.53;;;21.00;99.90;;;;;;4996821;28;20680;-79
2022/07/19 06:43:15;;;;;;;3.55;2.70;;;20.90;99.90;;;;;;4987419;28;20179;-79
2022/07/19 06:45:41;;;;;;;3.33;2.30;;;20.90;99.90;;;;;;5004749;28;20239;-79
2022/07/19 06:48:07;;;;;;;4.50;2.40;;;20.90;99.90;;;;;;5002566;28;20203;-79
2022/07/19 06:50:33;;;;;;;2.75;2.28;;;21.00;99.90;;;;;;5002003;28;20179;-79
2022/07/19 06:52:58;;;;;;;3.10;2.38;;;21.20;99.90;;;;;;5016584;28;20267;-79
2022/07/19 06:55:24;;;;;;;3.63;2.50;;;21.30;99.90;;;;;;5015656;28;20325;-79
2022/07/19 06:57:50;;;;;;;3.13;2.22;;;21.50;99.90;;;;;;4999037;28;20652;-78
2022/07/19 07:00:16;;;;;;;3.38;2.40;;;21.80;99.90;;;;;;5016080;28;20170;-77
2022/07/19 07:02:41;;;;;;;3.08;2.20;;;22.00;99.90;;;;;;4997941;28;20303;-78
2022/07/19 07:05:09;;;;;;;4.70;2.30;;;22.10;99.90;;;;;;4976035;28;20258;-78
2022/07/19 07:07:35;;;;;;;6.13;2.42;;;22.10;99.90;;;;;;5001708;28;20256;-78
2022/07/19 07:10:02;;;;;;;3.72;2.67;;;22.20;99.90;;;;;;5011729;28;20189;-78
2022/07/19 07:12:29;;;;;;;3.85;2.65;;;22.20;99.90;;;;;;4995227;28;20641;-78
2022/07/19 07:14:55;;;;;;;3.45;2.50;;;22.20;99.90;;;;;;5011478;28;20190;-78
2022/07/19 07:17:21;;;;;;;3.58;2.40;;;22.30;99.90;;;;;;4995215;28;20210;-78
2022/07/19 07:19:47;;;;;;;3.55;2.33;;;22.40;99.90;;;;;;4996178;28;20704;-78
2022/07/19 07:22:12;;;;;;;4.07;2.35;;;22.50;99.90;;;;;;5011315;28;20175;-78
2022/07/19 07:24:38;;;;;;;3.78;2.47;;;22.70;99.90;;;;;;5011676;28;20772;-78
2022/07/19 07:27:04;;;;;;;2.70;2.15;;;22.80;99.90;;;;;;5011301;28;20223;-78
2022/07/19 07:29:30;;;;;;;3.65;2.20;;;23.00;99.90;;;;;;4992000;28;20246;-78
2022/07/19 07:31:56;;;;;;;2.75;2.33;;;23.10;99.90;;;;;;4998196;28;20206;-77
2022/07/19 07:34:22;;;;;;;2.83;1.80;;;23.30;99.90;;;;;;4992338;28;20246;-78
2022/07/19 07:36:47;;;;;;;3.45;2.22;;;23.40;99.90;;;;;;5009779;28;20207;-78
2022/07/19 07:39:14;;;;;;;5.95;2.08;;;23.60;99.90;;;;;;4997830;28;20270;-78
2022/07/19 07:41:40;;;;;;;2.40;2.20;;;23.80;99.90;;;;;;5009537;28;20180;-78
2022/07/19 07:44:05;;;;;;;2.30;2.05;;;24.00;99.90;;;;;;5012408;28;20194;-78
2022/07/19 07:46:31;;;;;;;2.97;2.13;;;24.20;99.90;;;;;;5010807;28;20191;-78
2022/07/19 07:48:57;;;;;;;3.25;2.00;;;24.30;99.70;;;;;;4999733;28;20194;-78
2022/07/19 07:51:23;;;;;;;3.15;1.77;;;24.40;97.90;;;;;;4994720;28;20234;-78
2022/07/19 07:53:49;;;;;;;2.90;1.90;;;24.60;96.60;;;;;;4997192;28;20588;-77
2022/07/19 07:56:19;;;;;;;3.20;2.00;;;24.80;95.10;;;;;;4980559;28;20245;-77
2022/07/19 07:58:44;;;;;;;1.95;1.65;;;24.90;95.90;;;;;;4995829;28;20192;-77
2022/07/19 08:01:10;;;;;;;1.90;1.70;;;25.10;95.50;;;;;;4979350;28;20187;-77
2022/07/19 08:04:00;;;;;;;2.08;1.70;;;25.40;95.40;;;;;;4979115;28;20176;-78
2022/07/19 08:06:25;;;;;;;4.10;2.00;;;25.70;93.30;;;;;;4995468;28;20171;-77
2022/07/19 08:08:51;;;;;;;3.00;1.80;;;25.90;94.50;;;;;;4996982;28;20183;-77
2022/07/19 08:11:17;;;;;;;3.30;1.80;;;26.10;91.50;;;;;;4998912;28;20542;-77
2022/07/19 08:13:43;;;;;;;3.15;1.70;;;26.20;90.10;;;;;;4998791;28;20239;-77
2022/07/19 08:16:08;;;;;;;3.33;1.90;;;26.30;87.70;;;;;;5014825;28;20685;-77
2022/07/19 08:18:34;;;;;;;2.40;1.67;;;26.50;83.90;;;;;;4998534;28;20571;-77
2022/07/19 08:20:59;;;;;;;3.00;1.75;;;26.70;85.90;;;;;;4997204;28;20229;-77
2022/07/19 08:23:25;;;;;;;2.33;1.60;;;26.80;80.60;;;;;;4978754;28;20180;-77
2022/07/19 08:25:51;;;;;;;2.25;1.65;;;27.10;75.10;;;;;;4979059;28;20183;-77
2022/07/19 08:28:16;;;;;;;2.22;1.60;;;27.20;71.00;;;;;;4978675;28;20226;-77
2022/07/19 08:30:42;;;;;;;2.80;1.55;;;27.50;67.10;;;;;;4983821;28;20217;-77
2022/07/19 08:33:09;;;;;;;2.15;1.70;;;27.60;67.00;;;;;;4997295;28;20202;-77
2022/07/19 08:35:36;;;;;;;3.70;1.60;;;27.80;64.50;;;;;;4998256;28;20207;-77
2022/07/19 08:38:01;;;;;;;2.72;1.60;;;28.00;61.20;;;;;;4997899;28;20203;-77
2022/07/19 08:40:28;;;;;;;2.38;1.60;;;28.30;59.40;;;;;;5015708;28;20233;-77
2022/07/19 08:42:57;;;;;;;2.72;1.73;;;28.40;57.70;;;;;;4997684;28;20194;-77
2022/07/19 08:45:23;;;;;;;2.00;1.75;;;28.60;58.10;;;;;;5014292;28;20246;-77
2022/07/19 08:47:49;;;;;;;3.10;2.10;;;28.80;54.50;;;;;;4994285;28;20203;-77
2022/07/19 08:50:15;;;;;;;2.03;1.70;;;29.00;53.20;;;;;;5010608;28;20188;-77
2022/07/19 08:52:41;;;;;;;4.10;1.80;;;29.30;51.60;;;;;;4978209;28;20176;-77
2022/07/19 08:55:08;;;;;;;3.10;1.90;;;29.40;51.40;;;;;;5011061;28;20175;-77
2022/07/19 09:00:18;;;;;;;2.45;1.55;;;29.90;49.30;;;;;;4995948;28;20171;-78
2022/07/19 09:06:06;;;;;;;3.03;1.90;;;30.10;48.90;;;;;;4998001;28;20233;-76
2022/07/19 09:08:44;;;;;;;3.65;1.98;;;30.30;41.80;;;;;;4993423;28;20608;-77
2022/07/19 09:11:16;;;;;;;4.75;1.90;;;30.60;41.50;;;;;;4997051;28;20590;-76
2022/07/19 09:13:43;;;;;;;2.42;1.88;;;30.80;39.50;;;;;;4979229;28;20184;-77
2022/07/19 09:16:08;;;;;;;4.85;1.98;;;31.10;38.90;;;;;;4992529;28;20680;-78
2022/07/19 09:18:37;;;;;;;2.30;1.70;;;31.20;38.90;;;;;;4982848;28;20197;-77
2022/07/19 09:21:05;;;;;;;3.08;2.10;;;31.40;38.00;;;;;;4998214;28;20179;-77
2022/07/19 09:23:31;;;;;;;2.40;1.80;;;31.50;36.80;;;;;;5028607;28;20174;-78
2022/07/19 09:26:02;;;;;;;1.95;1.85;;;31.50;37.40;;;;;;5014376;28;20207;-77
2022/07/19 09:28:31;;;;;;;2.70;2.00;;;31.70;38.00;;;;;;5017463;28;20292;-75
2022/07/19 09:30:58;;;;;;;4.95;2.20;;;31.80;35.60;;;;;;5055663;22;20225;-78
2022/07/19 09:33:27;;;;;;;2.60;1.98;;;31.60;34.70;;;;;;5033199;28;20177;-76
2022/07/19 09:35:56;;;;;;;4.82;2.00;;;31.80;34.30;;;;;;5007719;28;20182;-75
2022/07/19 09:38:36;;;;;;;4.82;2.03;;;31.80;34.60;;;;;;5030113;28;20182;-76
2022/07/19 09:41:09;;;;;;;2.20;1.63;;;32.10;37.90;;;;;;5013762;28;20203;-77
2022/07/19 09:44:15;;;;;;;2.42;1.80;;;32.30;35.20;;;;;;5028366;28;20175;-77
2022/07/19 09:46:46;;;;;;;2.15;1.90;;;32.50;35.50;;;;;;5014076;28;20179;-77
2022/07/19 09:49:16;;;;;;;2.80;1.90;;;32.50;35.30;;;;;;4991451;28;20164;-77
2022/07/19 09:51:44;;;;;;;3.53;1.95;;;32.60;34.80;;;;;;4993620;28;20175;-76
2022/07/19 09:54:29;;;;;;;4.32;1.85;;;32.70;33.70;;;;;;5022599;28;20270;-77
2022/07/19 09:56:57;;;;;;;5.68;2.00;;;32.80;33.50;;;;;;4999128;28;20691;-76
2022/07/19 09:59:24;;;;;;;3.53;1.90;;;32.90;34.50;;;;;;5012591;28;20182;-74
2022/07/19 10:01:53;;;;;;;3.00;1.88;;;32.90;32.50;;;;;;5011797;28;20171;-74
2022/07/19 10:04:22;;;;;;;4.03;1.90;;;33.00;33.90;;;;;;4980508;28;20182;-76
2022/07/19 10:06:50;;;;;;;2.95;2.00;;;33.00;30.90;;;;;;5013077;28;20171;-75
2022/07/19 10:09:17;;;;;;;3.15;1.90;;;33.10;31.10;;;;;;4980493;28;20233;-75
2022/07/19 10:11:44;;;;;;;3.20;1.90;;;33.10;32.50;;;;;;5021546;28;20175;-77
2022/07/19 10:14:10;;;;;;;2.50;1.90;;;33.10;31.40;;;;;;5029405;28;20179;-77
2022/07/19 10:16:48;;;;;;;4.07;2.00;;;33.10;30.10;;;;;;5032053;28;20198;-74
2022/07/19 10:19:32;;;;;;;2.55;1.85;;;33.30;31.80;;;;;;5032209;28;20166;-75
2022/07/19 10:21:58;;;;;;;2.05;1.85;;;33.50;30.90;;;;;;5031643;28;20198;-75
2022/07/19 10:24:47;;;;;;;4.28;2.33;;;33.50;30.80;;;;;;5016116;28;20198;-77
2022/07/19 10:27:23;;;;;;;2.05;1.70;;;33.60;30.00;;;;;;5033713;28;20523;-77
2022/07/19 10:30:12;;;;;;;2.30;2.00;;;33.70;30.80;;;;;;5033395;28;20255;-77
2022/07/19 10:32:40;;;;;;;2.88;1.90;;;34.00;31.40;;;;;;5047694;28;20216;-74
2022/07/19 10:35:20;;;;;;;3.42;2.13;;;34.00;30.00;;;;;;5032001;28;20197;-76
2022/07/19 10:37:48;;;;;;;2.13;1.80;;;33.90;29.20;;;;;;5030762;28;20264;-79
2022/07/19 10:40:34;;;;;;;2.88;1.90;;;34.00;29.30;;;;;;5004482;28;20249;-75
2022/07/19 10:43:10;;;;;;;3.13;2.08;;;34.10;31.10;;;;;;5015834;28;20179;-77
2022/07/19 10:45:41;;;;;;;3.85;2.00;;;34.20;28.80;;;;;;5028502;28;20166;-76
2022/07/19 10:48:12;;;;;;;2.67;1.83;;;34.30;30.10;;;;;;5008795;28;20270;-78
2022/07/19 10:50:43;;;;;;;2.40;1.80;;;34.40;28.60;;;;;;4992145;28;20214;-75
2022/07/19 10:53:31;;;;;;;4.18;2.00;;;34.40;29.40;;;;;;4992973;28;20176;-75
2022/07/19 10:56:19;;;;;;;2.47;2.10;;;34.60;28.90;;;;;;4997875;28;20195;-76
2022/07/19 10:58:52;;;;;;;3.05;2.15;;;34.70;29.20;;;;;;4998399;28;20187;-75
2022/07/19 11:01:20;;;;;;;2.25;1.80;;;34.40;28.90;;;;;;5015148;28;20199;-74
2022/07/19 11:03:47;;;;;;;3.05;2.05;;;34.70;30.00;;;;;;4976007;28;20600;-75
2022/07/19 11:06:27;;;;;;;2.22;2.03;;;34.80;29.20;;;;;;4992765;28;20180;-75
2022/07/19 11:08:58;;;;;;;3.38;2.13;;;35.00;29.90;;;;;;5001376;28;20175;-74
2022/07/19 11:11:59;;;;;;;3.45;2.25;;;34.80;28.10;;;;;;4992036;28;20203;-74
2022/07/19 11:14:25;;;;;;;3.15;2.13;;;34.80;27.60;;;;;;4992325;28;20178;-74
2022/07/19 11:16:59;;;;;;;5.20;2.25;;;35.10;27.60;;;;;;4991931;28;20199;-74
2022/07/19 11:19:25;;;;;;;2.35;1.95;;;35.20;27.30;;;;;;5004047;28;20669;-77
2022/07/19 11:21:50;;;;;;;2.97;2.08;;;35.20;27.90;;;;;;5008221;28;20258;-76
2022/07/19 11:24:21;;;;;;;3.28;2.22;;;35.50;28.80;;;;;;5007760;28;20257;-77
2022/07/19 11:26:46;;;;;;;2.95;1.90;;;35.20;27.20;;;;;;5020387;28;20183;-76
2022/07/19 11:29:12;;;;;;;3.30;2.30;;;35.50;27.80;;;;;;5009543;28;20603;-76
2022/07/19 11:31:46;;;;;;;4.03;2.28;;;35.60;26.40;;;;;;5009147;28;20202;-76
2022/07/19 11:34:12;;;;;;;2.25;2.03;;;35.50;27.10;;;;;;5021011;28;20179;-77
2022/07/19 11:36:38;;;;;;;3.85;2.10;;;35.70;27.00;;;;;;5005033;28;20242;-76
2022/07/19 11:39:03;;;;;;;4.70;2.53;;;35.70;27.30;;;;;;4988072;28;20186;-74
2022/07/19 11:41:33;;;;;;;3.65;2.10;;;35.80;27.30;;;;;;4992128;28;20198;-75
2022/07/19 11:44:07;;;;;;;2.15;1.95;;;35.90;26.80;;;;;;5006914;28;20179;-76
2022/07/19 11:46:37;;;;;;;2.78;2.00;;;35.90;25.50;;;;;;4993585;28;20273;-77
2022/07/19 11:49:04;;;;;;;5.40;2.10;;;35.80;25.60;;;;;;5000122;28;20179;-77
2022/07/19 11:51:31;;;;;;;2.45;2.25;;;35.90;26.80;;;;;;5010691;28;20210;-77
2022/07/19 11:53:59;;;;;;;2.85;2.03;;;36.00;25.40;;;;;;5027624;28;20179;-77
2022/07/19 11:56:27;;;;;;;2.45;1.80;;;36.10;26.30;;;;;;5007449;28;20246;-77
2022/07/19 11:58:54;;;;;;;3.33;2.10;;;36.30;26.20;;;;;;5006733;28;20630;-76
2022/07/19 12:01:54;;;;;;;2.20;2.00;;;36.40;25.60;;;;;;4999185;28;20203;-77
2022/07/19 12:04:20;;;;;;;2.28;2.03;;;36.30;24.70;;;;;;5015404;28;20187;-77
2022/07/19 12:06:48;;;;;;;3.45;2.00;;;36.20;25.70;;;;;;5008007;28;20273;-76
2022/07/19 12:09:34;;;;;;;3.90;2.05;;;36.20;25.60;;;;;;5000781;28;20194;-76
2022/07/19 12:12:15;;;;;;;3.88;1.90;;;36.20;25.30;;;;;;5013307;28;20203;-78
2022/07/19 12:14:42;;;;;;;2.13;1.88;;;36.40;25.30;;;;;;4983777;28;20665;-77
2022/07/19 12:17:19;;;;;;;2.95;2.20;;;36.50;25.00;;;;;;5002716;28;20204;-76
2022/07/19 12:19:47;;;;;;;1.90;1.80;;;36.30;25.30;;;;;;4991049;28;20196;-76
2022/07/19 12:22:33;;;;;;;2.38;2.15;;;36.50;25.30;;;;;;5007932;28;20183;-76
2022/07/19 12:24:58;;;;;;;3.03;2.03;;;35.90;24.90;;;;;;4994076;28;20192;-77
2022/07/19 12:27:27;;;;;;;3.67;2.03;;;35.60;24.50;;;;;;4979177;28;20283;-76
2022/07/19 12:29:54;;;;;;;2.78;2.22;;;36.00;26.20;;;;;;4988137;28;20262;-78
2022/07/19 12:32:34;;;;;;;5.30;2.53;;;36.60;26.20;;;;;;5011117;28;20326;-76
2022/07/19 12:35:05;;;;;;;4.38;2.33;;;36.70;25.50;;;;;;5011303;28;20191;-77
2022/07/19 12:37:32;;;;;;;3.55;2.10;;;36.70;24.30;;;;;;4994942;28;20334;-77
2022/07/19 12:40:22;;;;;;;3.20;2.08;;;36.60;24.50;;;;;;4994502;28;20308;-77
2022/07/19 12:42:50;;;;;;;3.45;2.20;;;36.50;24.70;;;;;;5025093;28;20258;-77
2022/07/19 12:45:22;;;;;;;3.47;2.13;;;36.30;24.70;;;;;;4998147;28;20716;-75
2022/07/19 12:47:49;;;;;;;2.42;2.15;;;36.60;24.70;;;;;;4994601;28;20180;-77
2022/07/19 12:50:43;;;;;;;4.63;2.40;;;36.90;24.60;;;;;;4981498;28;20232;-78
2022/07/19 12:53:11;;;;;;;3.25;2.20;;;36.40;25.30;;;;;;5009292;28;20249;-76
2022/07/19 12:55:38;;;;;;;3.72;2.00;;;36.80;25.80;;;;;;5028095;28;20191;-77
2022/07/19 12:58:07;;;;;;;3.63;2.10;;;37.00;25.90;;;;;;5014026;28;20199;-76